sensor_id;sensor_type;location;lat;lon;timestamp;pressure;altitude;pressure_sealevel;temperature;humidity
35903;BME280;50775;44.112;12.316;2022-08-02T00:01:20;100969.69;;;29.18;38.67
35903;BME280;50775;44.112;12.316;2022-08-02T00:03:46;100966.75;;;29.13;38.80
35903;BME280;50775;44.112;12.316;2022-08-02T00:06:11;100975.28;;;29.10;39.08
35903;BME280;50775;44.112;12.316;2022-08-02T00:08:37;100978.44;;;29.14;39.14
35903;BME280;50775;44.112;12.316;2022-08-02T00:11:02;100980.75;;;29.17;38.91
35903;BME280;50775;44.112;12.316;2022-08-02T00:13:28;100981.38;;;29.19;39.04
35903;BME280;50775;44.112;12.316;2022-08-02T00:15:53;100986.63;;;29.20;38.75
35903;BME280;50775;44.112;12.316;2022-08-02T00:18:19;100979.69;;;29.18;38.96
35903;BME280;50775;44.112;12.316;2022-08-02T00:20:44;100987.00;;;29.17;39.03
35903;BME280;50775;44.112;12.316;2022-08-02T00:23:10;100989.50;;;29.19;39.21
35903;BME280;50775;44.112;12.316;2022-08-02T00:25:35;100991.38;;;29.18;38.77
35903;BME280;50775;44.112;12.316;2022-08-02T00:28:01;100986.16;;;29.17;38.85
35903;BME280;50775;44.112;12.316;2022-08-02T00:30:26;100987.84;;;29.18;38.99
35903;BME280;50775;44.112;12.316;2022-08-02T00:32:51;100990.13;;;29.14;39.21
35903;BME280;50775;44.112;12.316;2022-08-02T00:35:17;100990.75;;;29.16;38.91
35903;BME280;50775;44.112;12.316;2022-08-02T00:37:43;100994.50;;;29.15;39.37
35903;BME280;50775;44.112;12.316;2022-08-02T00:40:08;100993.47;;;29.16;39.33
35903;BME280;50775;44.112;12.316;2022-08-02T00:42:34;100995.13;;;29.17;39.46
35903;BME280;50775;44.112;12.316;2022-08-02T00:44:59;101003.06;;;29.19;39.03
35903;BME280;50775;44.112;12.316;2022-08-02T00:47:25;100990.28;;;29.06;39.39
35903;BME280;50775;44.112;12.316;2022-08-02T00:49:50;100991.94;;;29.07;39.03
35903;BME280;50775;44.112;12.316;2022-08-02T00:52:16;100987.38;;;29.08;39.08
35903;BME280;50775;44.112;12.316;2022-08-02T00:54:41;100988.38;;;29.00;38.93
35903;BME280;50775;44.112;12.316;2022-08-02T00:57:07;101000.09;;;29.07;39.31
35903;BME280;50775;44.112;12.316;2022-08-02T00:59:32;101002.41;;;29.10;39.35
35903;BME280;50775;44.112;12.316;2022-08-02T01:01:57;101002.00;;;29.13;39.62
35903;BME280;50775;44.112;12.316;2022-08-02T01:04:27;101003.25;;;29.11;39.28
35903;BME280;50775;44.112;12.316;2022-08-02T01:06:52;100997.81;;;29.11;39.57
35903;BME280;50775;44.112;12.316;2022-08-02T01:09:18;101001.16;;;29.13;39.34
35903;BME280;50775;44.112;12.316;2022-08-02T01:11:43;101001.38;;;29.11;39.13
35903;BME280;50775;44.112;12.316;2022-08-02T01:14:10;100995.38;;;28.94;39.50
35903;BME280;50775;44.112;12.316;2022-08-02T01:16:45;101000.75;;;28.88;39.06
35903;BME280;50775;44.112;12.316;2022-08-02T01:30:02;100999.06;;;29.08;39.35
35903;BME280;50775;44.112;12.316;2022-08-02T01:32:30;101000.09;;;29.07;38.89
35903;BME280;50775;44.112;12.316;2022-08-02T01:35:18;100997.38;;;29.07;39.15
35903;BME280;50775;44.112;12.316;2022-08-02T01:37:52;101005.50;;;29.07;39.43
35903;BME280;50775;44.112;12.316;2022-08-02T01:40:29;100999.06;;;29.08;39.35
35903;BME280;50775;44.112;12.316;2022-08-02T01:42:56;100999.25;;;29.07;39.35
35903;BME280;50775;44.112;12.316;2022-08-02T01:45:25;101000.94;;;29.08;39.28
35903;BME280;50775;44.112;12.316;2022-08-02T01:47:53;100994.66;;;29.07;39.31
35903;BME280;50775;44.112;12.316;2022-08-02T01:50:21;100993.81;;;29.07;39.24
35903;BME280;50775;44.112;12.316;2022-08-02T01:52:48;100993.81;;;29.07;39.29
35903;BME280;50775;44.112;12.316;2022-08-02T01:55:17;100996.53;;;29.07;39.50
35903;BME280;50775;44.112;12.316;2022-08-02T01:57:49;101001.13;;;29.06;39.39
35903;BME280;50775;44.112;12.316;2022-08-02T02:00:16;101002.81;;;29.07;39.64
35903;BME280;50775;44.112;12.316;2022-08-02T02:02:42;100998.41;;;29.06;39.58
35903;BME280;50775;44.112;12.316;2022-08-02T02:05:18;101000.28;;;29.06;39.57
35903;BME280;50775;44.112;12.316;2022-08-02T02:07:45;100999.44;;;29.05;39.25
35903;BME280;50775;44.112;12.316;2022-08-02T02:10:12;101003.84;;;29.06;39.65
35903;BME280;50775;44.112;12.316;2022-08-02T02:12:38;101002.81;;;29.07;39.37
35903;BME280;50775;44.112;12.316;2022-08-02T02:15:05;101006.94;;;29.03;39.30
35903;BME280;50775;44.112;12.316;2022-08-02T02:17:34;101011.59;;;28.88;39.80
35903;BME280;50775;44.112;12.316;2022-08-02T02:20:00;101008.44;;;28.84;39.50
35903;BME280;50775;44.112;12.316;2022-08-02T02:22:27;101008.63;;;28.83;39.50
35903;BME280;50775;44.112;12.316;2022-08-02T02:24:52;101007.22;;;28.87;39.70
35903;BME280;50775;44.112;12.316;2022-08-02T02:27:18;100999.13;;;28.93;39.24
35903;BME280;50775;44.112;12.316;2022-08-02T02:29:46;101003.31;;;28.96;39.56
35903;BME280;50775;44.112;12.316;2022-08-02T02:32:14;101001.28;;;28.98;39.44
35903;BME280;50775;44.112;12.316;2022-08-02T02:34:41;101007.53;;;28.99;39.58
35903;BME280;50775;44.112;12.316;2022-08-02T02:37:10;100997.53;;;28.99;39.54
35903;BME280;50775;44.112;12.316;2022-08-02T02:39:37;100992.75;;;29.01;39.46
35903;BME280;50775;44.112;12.316;2022-08-02T02:42:06;100991.28;;;28.99;39.49
35903;BME280;50775;44.112;12.316;2022-08-02T02:44:33;100987.00;;;28.89;39.45
35903;BME280;50775;44.112;12.316;2022-08-02T02:47:00;100984.88;;;28.85;39.62
35903;BME280;50775;44.112;12.316;2022-08-02T02:49:26;100990.69;;;28.82;39.45
35903;BME280;50775;44.112;12.316;2022-08-02T02:51:52;100990.97;;;28.87;39.55
35903;BME280;50775;44.112;12.316;2022-08-02T02:54:18;100984.09;;;28.91;39.60
35903;BME280;50775;44.112;12.316;2022-08-02T02:56:44;100984.50;;;28.88;39.06
35903;BME280;50775;44.112;12.316;2022-08-02T02:59:11;100990.97;;;28.87;39.14
35903;BME280;50775;44.112;12.316;2022-08-02T03:01:38;100992.63;;;28.88;39.32
35903;BME280;50775;44.112;12.316;2022-08-02T03:04:05;100988.28;;;28.93;39.19
35903;BME280;50775;44.112;12.316;2022-08-02T03:06:31;100985.53;;;28.87;39.50
35903;BME280;50775;44.112;12.316;2022-08-02T03:08:58;100988.69;;;28.90;39.44
35903;BME280;50775;44.112;12.316;2022-08-02T03:11:23;100996.22;;;28.95;39.20
35903;BME280;50775;44.112;12.316;2022-08-02T03:13:54;100996.22;;;28.95;39.36
35903;BME280;50775;44.112;12.316;2022-08-02T03:16:20;100989.97;;;28.94;39.28
35903;BME280;50775;44.112;12.316;2022-08-02T03:18:45;100992.88;;;28.93;39.32
35903;BME280;50775;44.112;12.316;2022-08-02T03:21:12;100999.13;;;28.93;39.35
35903;BME280;50775;44.112;12.316;2022-08-02T03:23:41;101009.78;;;28.95;39.56
35903;BME280;50775;44.112;12.316;2022-08-02T03:26:07;101007.06;;;28.95;39.58
35903;BME280;50775;44.112;12.316;2022-08-02T03:28:33;101013.53;;;28.94;39.55
35903;BME280;50775;44.112;12.316;2022-08-02T03:30:59;101010.16;;;28.71;39.42
35903;BME280;50775;44.112;12.316;2022-08-02T03:33:25;101012.25;;;28.68;39.75
35903;BME280;50775;44.112;12.316;2022-08-02T03:35:51;101023.84;;;28.62;39.88
35903;BME280;50775;44.112;12.316;2022-08-02T03:38:18;101029.88;;;28.58;40.11
35903;BME280;50775;44.112;12.316;2022-08-02T03:40:45;101052.66;;;28.13;40.37
35903;BME280;50775;44.112;12.316;2022-08-02T03:43:11;101073.19;;;28.22;40.57
35903;BME280;50775;44.112;12.316;2022-08-02T03:45:38;101078.72;;;28.14;40.49
35903;BME280;50775;44.112;12.316;2022-08-02T03:48:04;101066.84;;;28.15;40.92
35903;BME280;50775;44.112;12.316;2022-08-02T03:50:30;101067.13;;;28.20;40.17
35903;BME280;50775;44.112;12.316;2022-08-02T03:52:56;101046.75;;;28.24;40.12
35903;BME280;50775;44.112;12.316;2022-08-02T03:55:21;101043.19;;;28.38;40.19
35903;BME280;50775;44.112;12.316;2022-08-02T03:57:47;101033.16;;;28.53;39.49
35903;BME280;50775;44.112;12.316;2022-08-02T04:00:16;101034.69;;;28.62;39.76
35903;BME280;50775;44.112;12.316;2022-08-02T04:02:42;101040.13;;;28.62;39.38
35903;BME280;50775;44.112;12.316;2022-08-02T04:05:08;101047.41;;;28.41;39.37
35903;BME280;50775;44.112;12.316;2022-08-02T04:07:33;101055.25;;;28.35;39.88
35903;BME280;50775;44.112;12.316;2022-08-02T04:09:59;101053.50;;;28.28;40.20
35903;BME280;50775;44.112;12.316;2022-08-02T04:12:24;101040.63;;;28.51;39.66
35903;BME280;50775;44.112;12.316;2022-08-02T04:14:49;101043.88;;;28.61;39.40
35903;BME280;50775;44.112;12.316;2022-08-02T04:17:15;101034.69;;;28.62;39.44
35903;BME280;50775;44.112;12.316;2022-08-02T04:19:44;101034.31;;;28.65;39.36
35903;BME280;50775;44.112;12.316;2022-08-02T04:22:15;101045.59;;;28.69;39.23
35903;BME280;50775;44.112;12.316;2022-08-02T04:24:44;101044.75;;;28.68;39.48
35903;BME280;50775;44.112;12.316;2022-08-02T04:27:11;101043.47;;;28.64;39.71
35903;BME280;50775;44.112;12.316;2022-08-02T04:29:37;101043.09;;;28.67;39.51
35903;BME280;50775;44.112;12.316;2022-08-02T04:32:05;101064.25;;;28.57;40.44
35903;BME280;50775;44.112;12.316;2022-08-02T04:34:31;101072.63;;;28.62;39.83
35903;BME280;50775;44.112;12.316;2022-08-02T04:36:56;101079.75;;;28.63;40.13
35903;BME280;50775;44.112;12.316;2022-08-02T04:39:23;101076.88;;;28.72;39.88
35903;BME280;50775;44.112;12.316;2022-08-02T04:41:48;101096.50;;;28.74;39.77
35903;BME280;50775;44.112;12.316;2022-08-02T04:44:13;101099.91;;;28.76;39.83
35903;BME280;50775;44.112;12.316;2022-08-02T04:46:40;101106.72;;;28.72;40.19
35903;BME280;50775;44.112;12.316;2022-08-02T04:49:05;101125.16;;;28.61;40.18
35903;BME280;50775;44.112;12.316;2022-08-02T04:51:34;101119.81;;;28.68;40.15
35903;BME280;50775;44.112;12.316;2022-08-02T04:54:01;101130.75;;;28.75;39.94
35903;BME280;50775;44.112;12.316;2022-08-02T04:56:26;101126.06;;;28.68;40.45
35903;BME280;50775;44.112;12.316;2022-08-02T04:58:52;101130.72;;;28.53;40.71
35903;BME280;50775;44.112;12.316;2022-08-02T05:01:17;101135.44;;;28.66;40.34
35903;BME280;50775;44.112;12.316;2022-08-02T05:03:42;101138.00;;;28.74;40.39
35903;BME280;50775;44.112;12.316;2022-08-02T05:06:08;101142.88;;;28.79;40.40
35903;BME280;50775;44.112;12.316;2022-08-02T05:08:33;101143.97;;;28.84;40.25
35903;BME280;50775;44.112;12.316;2022-08-02T05:10:58;101131.66;;;28.82;40.54
35903;BME280;50775;44.112;12.316;2022-08-02T05:13:24;101140.06;;;28.87;40.28
35903;BME280;50775;44.112;12.316;2022-08-02T05:15:49;101127.16;;;28.89;40.37
35903;BME280;50775;44.112;12.316;2022-08-02T05:18:15;101129.47;;;28.92;40.25
35903;BME280;50775;44.112;12.316;2022-08-02T05:20:40;101136.97;;;28.90;40.92
35903;BME280;50775;44.112;12.316;2022-08-02T05:23:06;101134.91;;;28.92;40.89
35903;BME280;50775;44.112;12.316;2022-08-02T05:25:31;101138.91;;;28.96;41.28
35903;BME280;50775;44.112;12.316;2022-08-02T05:27:57;101142.28;;;28.98;40.83
35903;BME280;50775;44.112;12.316;2022-08-02T05:30:22;101147.03;;;28.96;41.62
35903;BME280;50775;44.112;12.316;2022-08-02T05:32:48;101144.16;;;28.98;41.77
35903;BME280;50775;44.112;12.316;2022-08-02T05:35:16;101143.97;;;28.99;41.97
35903;BME280;50775;44.112;12.316;2022-08-02T05:37:42;101159.84;;;29.02;42.21
35903;BME280;50775;44.112;12.316;2022-08-02T05:40:08;101158.59;;;29.05;42.28
35903;BME280;50775;44.112;12.316;2022-08-02T05:42:34;101169.25;;;29.06;41.75
35903;BME280;50775;44.112;12.316;2022-08-02T05:44:59;101174.03;;;29.04;43.58
35903;BME280;50775;44.112;12.316;2022-08-02T05:47:25;101181.13;;;29.05;42.32
35903;BME280;50775;44.112;12.316;2022-08-02T05:49:50;101187.22;;;29.07;43.30
35903;BME280;50775;44.112;12.316;2022-08-02T05:52:17;101184.88;;;29.04;43.70
35903;BME280;50775;44.112;12.316;2022-08-02T06:00:07;101173.41;;;29.02;44.53
35903;BME280;50775;44.112;12.316;2022-08-02T06:05:13;101165.91;;;29.04;43.73
35903;BME280;50775;44.112;12.316;2022-08-02T06:07:40;101160.69;;;29.03;43.87
35903;BME280;50775;44.112;12.316;2022-08-02T06:10:06;101154.41;;;29.02;44.09
35903;BME280;50775;44.112;12.316;2022-08-02T06:12:32;101163.19;;;29.04;43.93
35903;BME280;50775;44.112;12.316;2022-08-02T06:15:00;101180.94;;;29.07;43.80
35903;BME280;50775;44.112;12.316;2022-08-02T06:17:26;101195.34;;;29.07;44.06
35903;BME280;50775;44.112;12.316;2022-08-02T06:19:53;101195.72;;;29.04;45.21
35903;BME280;50775;44.112;12.316;2022-08-02T06:22:21;101208.25;;;29.05;44.28
35903;BME280;50775;44.112;12.316;2022-08-02T06:24:49;101206.59;;;29.04;44.29
35903;BME280;50775;44.112;12.316;2022-08-02T06:27:16;101201.16;;;29.04;44.27
35903;BME280;50775;44.112;12.316;2022-08-02T06:29:42;101213.69;;;29.05;44.17
35903;BME280;50775;44.112;12.316;2022-08-02T06:32:08;101225.38;;;29.06;44.75
35903;BME280;50775;44.112;12.316;2022-08-02T06:34:37;101218.06;;;29.06;44.18
35903;BME280;50775;44.112;12.316;2022-08-02T06:37:08;101209.94;;;29.06;44.39
35903;BME280;50775;44.112;12.316;2022-08-02T06:42:27;101237.06;;;29.06;45.13
35903;BME280;50775;44.112;12.316;2022-08-02T06:44:54;101253.53;;;29.05;45.85
35903;BME280;50775;44.112;12.316;2022-08-02T06:47:20;101259.97;;;29.04;45.26
35903;BME280;50775;44.112;12.316;2022-08-02T06:49:46;101265.84;;;29.07;45.75
35903;BME280;50775;44.112;12.316;2022-08-02T06:52:11;101272.97;;;29.08;45.02
35903;BME280;50775;44.112;12.316;2022-08-02T06:54:37;101274.84;;;29.08;47.03
35903;BME280;50775;44.112;12.316;2022-08-02T06:57:06;101275.47;;;29.10;46.88
35903;BME280;50775;44.112;12.316;2022-08-02T06:59:32;101282.78;;;29.09;47.19
35903;BME280;50775;44.112;12.316;2022-08-02T07:01:57;101276.31;;;29.10;47.84
35903;BME280;50775;44.112;12.316;2022-08-02T07:04:23;101269.22;;;29.09;48.59
35903;BME280;50775;44.112;12.316;2022-08-02T07:06:49;101281.56;;;29.12;48.66
35903;BME280;50775;44.112;12.316;2022-08-02T07:09:14;101278.00;;;29.11;48.80
35903;BME280;50775;44.112;12.316;2022-08-02T07:11:40;101275.94;;;29.13;49.54
35903;BME280;50775;44.112;12.316;2022-08-02T07:14:05;101273.16;;;29.07;49.81
35903;BME280;50775;44.112;12.316;2022-08-02T07:16:31;101276.72;;;29.07;50.52
35903;BME280;50775;44.112;12.316;2022-08-02T07:18:57;101269.22;;;29.09;48.93
35903;BME280;50775;44.112;12.316;2022-08-02T07:21:22;101267.16;;;29.11;49.10
35903;BME280;50775;44.112;12.316;2022-08-02T07:23:48;101268.84;;;29.12;49.43
35903;BME280;50775;44.112;12.316;2022-08-02T07:26:13;101267.59;;;29.15;48.97
35903;BME280;50775;44.112;12.316;2022-08-02T07:28:39;101280.31;;;29.14;49.74
35903;BME280;50775;44.112;12.316;2022-08-02T07:31:04;101278.84;;;29.12;49.42
35903;BME280;50775;44.112;12.316;2022-08-02T07:33:30;101284.66;;;29.09;49.29
35903;BME280;50775;44.112;12.316;2022-08-02T07:35:55;101287.16;;;29.10;49.24
35903;BME280;50775;44.112;12.316;2022-08-02T07:38:22;101294.28;;;29.11;49.37
35903;BME280;50775;44.112;12.316;2022-08-02T07:40:49;101305.97;;;29.12;49.12
35903;BME280;50775;44.112;12.316;2022-08-02T07:43:14;101307.19;;;29.09;50.36
35903;BME280;50775;44.112;12.316;2022-08-02T07:45:41;101299.44;;;29.06;50.71
35903;BME280;50775;44.112;12.316;2022-08-02T07:48:06;101296.28;;;29.03;51.64
35903;BME280;50775;44.112;12.316;2022-08-02T07:50:32;101307.50;;;29.00;51.72
35903;BME280;50775;44.112;12.316;2022-08-02T07:52:58;101293.28;;;28.98;51.98
35903;BME280;50775;44.112;12.316;2022-08-02T07:55:24;101296.47;;;29.01;51.25
35903;BME280;50775;44.112;12.316;2022-08-02T07:57:49;101306.28;;;29.02;51.25
35903;BME280;50775;44.112;12.316;2022-08-02T08:00:16;101310.66;;;29.03;51.63
35903;BME280;50775;44.112;12.316;2022-08-02T08:02:41;101309.38;;;28.99;51.73
35903;BME280;50775;44.112;12.316;2022-08-02T08:05:07;101323.56;;;29.01;51.85
35903;BME280;50775;44.112;12.316;2022-08-02T08:07:33;101314.03;;;29.05;51.82
35903;BME280;50775;44.112;12.316;2022-08-02T08:09:59;101309.06;;;29.09;50.86
35903;BME280;50775;44.112;12.316;2022-08-02T08:12:25;101306.81;;;29.12;51.43
35903;BME280;50775;44.112;12.316;2022-08-02T08:14:50;101306.41;;;29.15;51.16
35903;BME280;50775;44.112;12.316;2022-08-02T08:17:16;101295.75;;;29.14;51.23
35903;BME280;50775;44.112;12.316;2022-08-02T08:19:41;101302.66;;;29.16;50.78
35903;BME280;50775;44.112;12.316;2022-08-02T08:22:07;101301.63;;;29.17;50.55
35903;BME280;50775;44.112;12.316;2022-08-02T08:24:32;101294.81;;;29.21;50.82
35903;BME280;50775;44.112;12.316;2022-08-02T08:26:57;101296.31;;;29.24;51.09
35903;BME280;50775;44.112;12.316;2022-08-02T08:29:23;101299.41;;;29.21;50.53
35903;BME280;50775;44.112;12.316;2022-08-02T08:31:48;101308.41;;;29.21;51.22
35903;BME280;50775;44.112;12.316;2022-08-02T08:34:14;101308.41;;;29.21;50.45
35903;BME280;50775;44.112;12.316;2022-08-02T08:36:40;101321.94;;;29.21;51.26
35903;BME280;50775;44.112;12.316;2022-08-02T08:39:05;101321.13;;;29.21;51.45
35903;BME280;50775;44.112;12.316;2022-08-02T08:41:31;101338.22;;;29.21;51.49
35903;BME280;50775;44.112;12.316;2022-08-02T08:43:56;101343.34;;;29.16;51.76
35903;BME280;50775;44.112;12.316;2022-08-02T08:46:33;101351.31;;;29.18;51.58
35903;BME280;50775;44.112;12.316;2022-08-02T08:49:08;101351.88;;;29.13;52.02
35903;BME280;50775;44.112;12.316;2022-08-02T08:51:37;101372.56;;;29.14;51.67
35903;BME280;50775;44.112;12.316;2022-08-02T08:54:05;101367.97;;;29.15;51.65
35903;BME280;50775;44.112;12.316;2022-08-02T08:56:32;101361.31;;;29.17;51.25
35903;BME280;50775;44.112;12.316;2022-08-02T08:58:59;101367.38;;;29.19;51.33
35903;BME280;50775;44.112;12.316;2022-08-02T09:01:24;101366.56;;;29.19;50.75
35903;BME280;50775;44.112;12.316;2022-08-02T09:03:50;101379.84;;;29.14;51.99
35903;BME280;50775;44.112;12.316;2022-08-02T09:06:15;101384.81;;;29.10;51.51
35903;BME280;50775;44.112;12.316;2022-08-02T09:08:41;101395.00;;;29.08;52.19
35903;BME280;50775;44.112;12.316;2022-08-02T09:11:14;101398.84;;;28.99;53.44
35903;BME280;50775;44.112;12.316;2022-08-02T09:13:51;101388.00;;;28.99;53.79
35903;BME280;50775;44.112;12.316;2022-08-02T09:16:26;101389.13;;;28.90;54.18
35903;BME280;50775;44.112;12.316;2022-08-02T09:18:52;101380.53;;;28.86;53.99
35903;BME280;50775;44.112;12.316;2022-08-02T09:21:17;101397.31;;;28.82;54.17
35903;BME280;50775;44.112;12.316;2022-08-02T09:23:50;101402.88;;;28.88;54.13
35903;BME280;50775;44.112;12.316;2022-08-02T09:28:43;101421.53;;;28.83;54.03
35903;BME280;50775;44.112;12.316;2022-08-02T09:31:11;101419.56;;;28.77;53.91
35903;BME280;50775;44.112;12.316;2022-08-02T09:33:38;101428.09;;;28.51;54.32
35903;BME280;50775;44.112;12.316;2022-08-02T09:36:08;101406.81;;;28.25;55.01
35903;BME280;50775;44.112;12.316;2022-08-02T09:38:33;101416.69;;;28.18;55.38
35903;BME280;50775;44.112;12.316;2022-08-02T09:40:59;101420.66;;;28.08;56.22
35903;BME280;50775;44.112;12.316;2022-08-02T09:43:39;101420.19;;;28.27;54.95
35903;BME280;50775;44.112;12.316;2022-08-02T09:48:55;101406.69;;;28.19;55.38
35903;BME280;50775;44.112;12.316;2022-08-02T09:51:25;101389.03;;;28.31;54.54
35903;BME280;50775;44.112;12.316;2022-08-02T09:53:52;101375.78;;;28.51;53.61
35903;BME280;50775;44.112;12.316;2022-08-02T09:56:17;101375.91;;;28.57;53.19
35903;BME280;50775;44.112;12.316;2022-08-02T09:58:43;101356.38;;;28.62;52.84
35903;BME280;50775;44.112;12.316;2022-08-02T10:01:09;101350.38;;;28.66;52.45
35903;BME280;50775;44.112;12.316;2022-08-02T10:03:34;101331.69;;;28.72;52.55
35903;BME280;50775;44.112;12.316;2022-08-02T10:06:00;101307.78;;;28.75;52.15
35903;BME280;50775;44.112;12.316;2022-08-02T10:08:26;101303.34;;;28.74;52.14
35903;BME280;50775;44.112;12.316;2022-08-02T10:10:52;101316.75;;;28.76;51.75
35903;BME280;50775;44.112;12.316;2022-08-02T10:13:27;101322.16;;;28.76;51.70
35903;BME280;50775;44.112;12.316;2022-08-02T10:15:54;101329.63;;;28.74;51.36
35903;BME280;50775;44.112;12.316;2022-08-02T10:18:20;101338.06;;;28.79;51.26
35903;BME280;50775;44.112;12.316;2022-08-02T10:20:45;101349.34;;;28.82;51.35
35903;BME280;50775;44.112;12.316;2022-08-02T10:23:12;101352.25;;;28.81;51.24
35903;BME280;50775;44.112;12.316;2022-08-02T10:25:38;101350.19;;;28.83;50.80
35903;BME280;50775;44.112;12.316;2022-08-02T10:28:07;101348.16;;;28.85;51.05
35903;BME280;50775;44.112;12.316;2022-08-02T10:30:36;101335.63;;;28.84;51.00
35903;BME280;50775;44.112;12.316;2022-08-02T10:33:03;101334.44;;;28.86;50.48
35903;BME280;50775;44.112;12.316;2022-08-02T10:35:33;101329.34;;;28.83;50.33
35903;BME280;50775;44.112;12.316;2022-08-02T10:38:01;101331.53;;;28.88;50.20
35903;BME280;50775;44.112;12.316;2022-08-02T10:40:48;101326.75;;;28.90;50.43
35903;BME280;50775;44.112;12.316;2022-08-02T10:54:10;101327.88;;;28.95;49.89
35903;BME280;50775;44.112;12.316;2022-08-02T10:56:45;101317.50;;;28.99;49.13
35903;BME280;50775;44.112;12.316;2022-08-02T10:59:43;101313.75;;;29.00;48.62
35903;BME280;50775;44.112;12.316;2022-08-02T11:02:03;101316.47;;;29.00;48.92
35903;BME280;50775;44.112;12.316;2022-08-02T11:05:00;101310.03;;;29.01;48.28
35903;BME280;50775;44.112;12.316;2022-08-02T11:07:18;101311.88;;;29.01;48.59
35903;BME280;50775;44.112;12.316;2022-08-02T11:09:45;101306.28;;;29.02;48.10
35903;BME280;50775;44.112;12.316;2022-08-02T11:12:12;101304.41;;;29.03;47.77
35903;BME280;50775;44.112;12.316;2022-08-02T11:14:38;101307.97;;;29.03;47.72
35903;BME280;50775;44.112;12.316;2022-08-02T11:17:14;101306.94;;;29.04;47.78
35903;BME280;50775;44.112;12.316;2022-08-02T11:22:24;101307.56;;;29.06;47.65
35903;BME280;50775;44.112;12.316;2022-08-02T11:24:49;101309.25;;;29.07;47.21
35903;BME280;50775;44.112;12.316;2022-08-02T11:27:16;101313.66;;;29.08;46.80
35903;BME280;50775;44.112;12.316;2022-08-02T11:29:43;101321.78;;;29.08;46.80
35903;BME280;50775;44.112;12.316;2022-08-02T11:32:15;101322.63;;;29.09;46.82
35903;BME280;50775;44.112;12.316;2022-08-02T11:34:44;101327.00;;;29.10;46.33
35903;BME280;50775;44.112;12.316;2022-08-02T11:37:10;101325.78;;;29.12;47.05
35903;BME280;50775;44.112;12.316;2022-08-02T11:39:35;101323.72;;;29.14;47.05
35903;BME280;50775;44.112;12.316;2022-08-02T11:42:01;101326.06;;;29.17;46.81
35903;BME280;50775;44.112;12.316;2022-08-02T11:44:28;101322.69;;;29.15;47.11
35903;BME280;50775;44.112;12.316;2022-08-02T11:46:55;101312.69;;;29.16;47.02
35903;BME280;50775;44.112;12.316;2022-08-02T11:49:20;101317.72;;;29.19;47.15
35903;BME280;50775;44.112;12.316;2022-08-02T11:51:49;101312.13;;;29.20;47.16
35903;BME280;50775;44.112;12.316;2022-08-02T11:54:21;101313.34;;;29.18;47.09
35903;BME280;50775;44.112;12.316;2022-08-02T11:56:46;101308.59;;;29.20;46.69
35903;BME280;50775;44.112;12.316;2022-08-02T11:59:12;101308.41;;;29.21;46.58
35903;BME280;50775;44.112;12.316;2022-08-02T12:01:38;101313.81;;;29.21;47.05
35903;BME280;50775;44.112;12.316;2022-08-02T12:04:04;101320.63;;;29.17;46.96
35903;BME280;50775;44.112;12.316;2022-08-02T12:06:30;101326.91;;;29.18;47.02
35903;BME280;50775;44.112;12.316;2022-08-02T12:09:01;101317.56;;;29.20;46.75
35903;BME280;50775;44.112;12.316;2022-08-02T12:11:29;101322.59;;;29.23;46.98
35903;BME280;50775;44.112;12.316;2022-08-02T12:13:55;101319.03;;;29.23;46.94
35903;BME280;50775;44.112;12.316;2022-08-02T12:16:21;101323.25;;;29.25;47.05
35903;BME280;50775;44.112;12.316;2022-08-02T12:19:06;101323.06;;;29.27;47.05
35903;BME280;50775;44.112;12.316;2022-08-02T12:21:43;101316.59;;;29.28;46.64
35903;BME280;50775;44.112;12.316;2022-08-02T12:24:09;101317.06;;;29.32;46.60
35903;BME280;50775;44.112;12.316;2022-08-02T12:26:45;101321.81;;;29.30;46.94
35903;BME280;50775;44.112;12.316;2022-08-02T12:29:11;101332.50;;;29.31;46.59
35903;BME280;50775;44.112;12.316;2022-08-02T12:31:43;101326.22;;;29.31;46.93
35903;BME280;50775;44.112;12.316;2022-08-02T12:34:16;101324.16;;;29.33;46.51
35903;BME280;50775;44.112;12.316;2022-08-02T12:36:56;101323.97;;;29.34;46.88
35903;BME280;50775;44.112;12.316;2022-08-02T12:39:31;101322.94;;;29.35;46.44
35903;BME280;50775;44.112;12.316;2022-08-02T12:41:57;101320.41;;;29.34;46.43
35903;BME280;50775;44.112;12.316;2022-08-02T12:44:22;101317.31;;;29.37;46.86
35903;BME280;50775;44.112;12.316;2022-08-02T12:46:57;101317.31;;;29.37;46.38
35903;BME280;50775;44.112;12.316;2022-08-02T12:49:22;101302.91;;;29.36;46.88
35903;BME280;50775;44.112;12.316;2022-08-02T12:51:48;101300.00;;;29.38;46.77
35903;BME280;50775;44.112;12.316;2022-08-02T12:54:15;101296.06;;;29.40;46.66
35903;BME280;50775;44.112;12.316;2022-08-02T12:56:42;101294.00;;;29.42;46.83
35903;BME280;50775;44.112;12.316;2022-08-02T12:59:07;101292.13;;;29.43;46.80
35903;BME280;50775;44.112;12.316;2022-08-02T13:01:34;101283.16;;;29.42;46.63
35903;BME280;50775;44.112;12.316;2022-08-02T13:03:59;101275.50;;;29.46;46.44
35903;BME280;50775;44.112;12.316;2022-08-02T13:06:25;101272.13;;;29.44;46.51
35903;BME280;50775;44.112;12.316;2022-08-02T13:08:51;101269.41;;;29.44;46.60
35903;BME280;50775;44.112;12.316;2022-08-02T13:11:18;101275.50;;;29.46;46.53
35903;BME280;50775;44.112;12.316;2022-08-02T13:13:45;101269.22;;;29.45;46.80
35903;BME280;50775;44.112;12.316;2022-08-02T13:16:11;101266.31;;;29.47;46.49
35903;BME280;50775;44.112;12.316;2022-08-02T13:18:37;101256.31;;;29.47;46.76
35903;BME280;50775;44.112;12.316;2022-08-02T13:21:03;101255.47;;;29.47;46.69